Time;durP1;ratioP1;P1;durP2;ratioP2;P2;SDS_P1;SDS_P2;PMS_P1;PMS_P2;Temp;Humidity;BMP_temperature;BMP_pressure;BME280_temperature;BME280_humidity;BME280_pressure;Samples;Min_cycle;Max_cycle;Signal;HPM_P1;HPM_P2
2021/09/02 00:01:38;;;;;;;;;13.67;11.00;;;;;19.15;53.67;101930.06;5078703;28;47301;-54
2021/09/02 00:04:03;;;;;;;;;16.50;16.50;;;;;19.14;53.79;101926.50;5067956;28;45386;-54
2021/09/02 00:06:29;;;;;;;;;14.00;12.75;;;;;19.14;53.71;101920.25;5060989;28;45314;-51
2021/09/02 00:08:54;;;;;;;;;13.67;13.67;;;;;19.11;53.89;101922.13;5060713;28;45448;-53
2021/09/02 00:11:20;;;;;;;;;16.25;15.00;;;;;19.10;53.81;101923.06;5060677;28;47827;-53
2021/09/02 00:13:45;;;;;;;;;15.00;15.00;;;;;19.08;54.00;101927.63;5060934;28;45668;-53
2021/09/02 00:16:11;;;;;;;;;14.33;12.33;;;;;19.08;53.99;101918.69;5078720;28;45354;-53
2021/09/02 00:18:36;;;;;;;;;14.67;13.33;;;;;19.06;53.99;101917.88;5078694;28;45554;-53
2021/09/02 00:21:02;;;;;;;;;20.25;15.00;;;;;19.02;54.11;101914.38;5060450;28;45342;-53
2021/09/02 00:23:28;;;;;;;;;15.00;14.00;;;;;19.02;53.73;101913.50;5079064;28;45765;-52
2021/09/02 00:25:53;;;;;;;;;14.50;12.75;;;;;19.00;53.89;101900.13;5078589;28;45337;-52
2021/09/02 00:28:20;;;;;;;;;17.00;15.00;;;;;18.99;54.05;101901.06;5060808;28;45436;-53
2021/09/02 00:30:46;;;;;;;;;16.50;15.00;;;;;18.98;54.17;101896.63;5088453;27;48244;-52
2021/09/02 00:33:18;;;;;;;;;17.50;16.00;;;;;18.98;54.01;101895.75;5061671;27;45367;-52
2021/09/02 00:35:45;;;;;;;;;17.25;17.25;;;;;18.97;54.07;101892.19;5078533;27;45422;-53
2021/09/02 00:38:11;;;;;;;;;16.75;15.25;;;;;18.94;54.06;101891.44;5078136;27;45444;-52
2021/09/02 00:40:37;;;;;;;;;16.00;15.00;;;;;18.93;54.42;101889.63;5077636;28;47365;-51
2021/09/02 00:43:03;;;;;;;;;15.67;14.33;;;;;18.94;54.04;101891.44;5078192;28;45415;-49
2021/09/02 00:45:29;;;;;;;;;13.67;12.00;;;;;18.92;54.28;101879.81;5078126;27;45359;-51
2021/09/02 00:47:55;;;;;;;;;14.50;14.50;;;;;18.91;54.20;101884.31;5078220;27;45330;-51
2021/09/02 00:50:21;;;;;;;;;16.50;14.00;;;;;18.90;54.08;101881.69;5078198;27;47058;-52
2021/09/02 00:52:47;;;;;;;;;16.25;14.50;;;;;18.87;54.24;101888.06;5062174;28;45401;-51
2021/09/02 00:55:13;;;;;;;;;17.33;17.33;;;;;18.88;54.46;101897.00;5057405;28;45510;-50
2021/09/02 00:57:39;;;;;;;;;16.00;16.00;;;;;18.84;54.19;101893.56;5070174;28;45534;-53
2021/09/02 01:00:09;;;;;;;;;14.50;14.00;;;;;18.82;54.21;101892.75;5077959;27;47476;-50
2021/09/02 01:02:35;;;;;;;;;15.25;14.25;;;;;18.79;54.53;101887.47;5080290;27;45314;-51
2021/09/02 01:05:04;;;;;;;;;15.67;15.00;;;;;18.78;54.21;101883.03;5055821;28;46798;-53
2021/09/02 01:07:31;;;;;;;;;16.00;12.00;;;;;18.77;54.32;101892.03;5081394;28;45548;-49
2021/09/02 01:09:59;;;;;;;;;15.67;14.67;;;;;18.74;54.37;101892.16;5080894;28;47375;-50
2021/09/02 01:12:40;;;;;;;;;11.67;11.67;;;;;18.73;54.61;101895.78;5081452;28;45369;-50
2021/09/02 01:15:16;;;;;;;;;19.50;15.75;;;;;18.73;54.61;101893.09;5081336;28;45263;-52
2021/09/02 01:17:47;;;;;;;;;14.33;14.33;;;;;18.73;54.80;101895.78;5081472;28;45594;-48
2021/09/02 01:20:16;;;;;;;;;19.00;16.25;;;;;18.70;54.40;101903.97;5081207;28;47131;-52
2021/09/02 01:22:43;;;;;;;;;19.25;18.00;;;;;18.67;54.66;101896.00;5080969;28;45416;-51
2021/09/02 01:25:15;;;;;;;;;20.25;17.75;;;;;18.68;54.91;101895.97;5063217;28;45672;-56
2021/09/02 01:27:42;;;;;;;;;20.50;19.00;;;;;18.68;54.72;101892.41;5081402;27;45668;-52
2021/09/02 01:30:12;;;;;;;;;25.00;22.00;;;;;18.66;54.41;101889.72;5086022;27;47401;-52
2021/09/02 01:32:43;;;;;;;;;19.75;19.25;;;;;18.65;54.77;101879.03;5066704;28;46016;-50
2021/09/02 01:35:10;;;;;;;;;20.00;19.75;;;;;18.63;54.77;101880.88;5072641;28;45589;-53
2021/09/02 01:37:40;;;;;;;;;17.00;17.00;;;;;18.60;54.84;101879.19;5062669;28;45492;-53
2021/09/02 01:40:08;;;;;;;;;16.75;16.75;;;;;18.56;54.91;101872.19;5088353;27;47316;-49
2021/09/02 01:42:33;;;;;;;;;21.00;19.75;;;;;18.53;55.02;101872.25;5062961;28;45347;-52
2021/09/02 01:44:58;;;;;;;;;16.25;15.75;;;;;18.50;54.73;101869.69;5079692;27;45379;-53
2021/09/02 01:47:27;;;;;;;;;17.75;15.50;;;;;18.46;54.79;101868.94;5075533;28;45342;-54
2021/09/02 01:49:54;;;;;;;;;18.25;18.25;;;;;18.44;55.12;101872.63;5080272;28;48295;-52
2021/09/02 01:52:21;;;;;;;;;19.00;19.00;;;;;18.43;55.11;101863.69;5079882;28;45851;-55
2021/09/02 01:54:46;;;;;;;;;16.50;15.75;;;;;18.42;55.15;101861.03;5080997;27;45679;-53
2021/09/02 01:57:14;;;;;;;;;17.00;16.00;;;;;18.40;55.16;101869.13;5080517;27;45302;-53
2021/09/02 01:59:39;;;;;;;;;17.00;16.00;;;;;18.39;55.38;101861.13;5037219;27;47018;-52
2021/09/02 02:02:05;;;;;;;;;19.00;17.75;;;;;18.38;55.09;101862.94;5077232;27;45730;-53
2021/09/02 02:04:31;;;;;;;;;18.75;18.25;;;;;18.35;55.17;101871.13;5080769;27;45362;-53
2021/09/02 02:06:56;;;;;;;;;22.50;19.75;;;;;18.32;55.22;101871.25;5080885;27;45556;-51
2021/09/02 02:09:22;;;;;;;;;25.00;21.00;;;;;18.29;55.22;101870.44;5087865;27;47078;-53
2021/09/02 02:11:48;;;;;;;;;19.25;18.25;;;;;18.28;55.42;101866.00;5080287;27;45495;-53
2021/09/02 02:14:13;;;;;;;;;17.50;16.50;;;;;18.26;55.44;101866.06;5065090;27;45851;-53
2021/09/02 02:16:38;;;;;;;;;18.00;15.75;;;;;18.25;55.53;101858.94;5076910;27;45685;-52
2021/09/02 02:19:04;;;;;;;;;19.50;18.25;;;;;18.24;55.60;101866.13;5074883;27;47135;-53
2021/09/02 02:21:29;;;;;;;;;20.50;18.00;;;;;18.22;55.63;101854.56;5080071;28;45322;-51
2021/09/02 02:23:55;;;;;;;;;21.50;20.25;;;;;18.20;55.64;101859.13;5061931;27;45387;-54
2021/09/02 02:26:21;;;;;;;;;22.50;22.25;;;;;18.21;56.06;101849.25;5062684;28;45636;-60
2021/09/02 02:28:46;;;;;;;;;17.50;15.50;;;;;18.22;55.89;101838.44;5071980;27;48106;-62
2021/09/02 02:31:11;;;;;;;;;20.50;19.00;;;;;18.23;55.94;101834.81;5059496;27;45521;-61
2021/09/02 02:33:37;;;;;;;;;21.75;17.00;;;;;18.27;56.06;101850.81;5080769;28;45642;-61
2021/09/02 02:36:03;;;;;;;;;17.00;15.00;;;;;18.29;55.97;101836.41;5080356;27;45596;-62
2021/09/02 02:38:29;;;;;;;;;17.00;16.50;;;;;18.31;56.04;101842.63;5062070;28;47233;-62
2021/09/02 02:40:55;;;;;;;;;19.25;17.00;;;;;18.33;56.00;101854.19;5079647;28;45731;-62
2021/09/02 02:43:20;;;;;;;;;19.75;18.25;;;;;18.34;55.72;101845.19;5080995;27;45613;-61
2021/09/02 02:45:46;;;;;;;;;16.25;15.50;;;;;18.36;55.91;101846.00;5079733;28;45384;-61
2021/09/02 02:48:11;;;;;;;;;15.00;13.33;;;;;18.35;55.87;101832.63;5060974;28;47659;-61
2021/09/02 02:50:37;;;;;;;;;19.00;17.50;;;;;18.35;56.03;101840.69;5061857;28;45712;-61
2021/09/02 02:53:02;;;;;;;;;20.50;16.25;;;;;18.35;55.84;101836.19;5066404;28;45395;-61
2021/09/02 02:55:27;;;;;;;;;13.33;12.67;;;;;18.36;55.79;101832.56;5085382;27;45933;-61
2021/09/02 02:57:56;;;;;;;;;21.00;18.25;;;;;18.38;55.96;101832.50;5071395;27;47183;-61
2021/09/02 03:00:21;;;;;;;;;17.25;17.25;;;;;18.37;55.59;101828.94;5070648;27;45511;-61
2021/09/02 03:02:47;;;;;;;;;21.75;20.75;;;;;18.39;55.90;101831.56;5077675;28;45544;-61
2021/09/02 03:05:13;;;;;;;;;20.33;18.33;;;;;18.40;55.64;101822.56;5052841;28;45362;-61
2021/09/02 03:07:38;;;;;;;;;18.50;18.50;;;;;18.42;55.86;101821.59;5080171;27;47366;-61
2021/09/02 03:10:06;;;;;;;;;19.25;17.00;;;;;18.43;55.69;101822.47;5088109;27;45745;-63
2021/09/02 03:12:32;;;;;;;;;21.50;19.50;;;;;18.44;55.87;101810.81;5061709;28;45563;-60
2021/09/02 03:14:57;;;;;;;;;20.00;20.00;;;;;18.45;55.70;101820.63;5061071;28;45714;-60
2021/09/02 03:17:23;;;;;;;;;20.25;19.50;;;;;18.45;55.59;101828.69;5079278;28;48024;-60
2021/09/02 03:19:48;;;;;;;;;16.00;15.75;;;;;18.46;55.60;101825.94;5079494;28;45945;-60
2021/09/02 03:22:14;;;;;;;;;20.50;18.75;;;;;18.46;55.52;101830.44;5061732;28;45541;-60
2021/09/02 03:24:39;;;;;;;;;22.00;20.25;;;;;18.45;55.61;101832.25;5059886;28;45508;-60
2021/09/02 03:27:05;;;;;;;;;21.50;18.50;;;;;18.44;55.55;101830.50;5078785;28;47091;-60
2021/09/02 03:29:30;;;;;;;;;17.25;17.25;;;;;18.43;55.33;101831.44;5072713;27;46013;-60
2021/09/02 03:31:56;;;;;;;;;22.00;18.75;;;;;18.44;55.70;101824.25;5070726;27;45372;-61
2021/09/02 03:34:21;;;;;;;;;25.50;24.50;;;;;18.45;55.70;101820.63;5071876;28;45299;-60
2021/09/02 03:36:47;;;;;;;;;20.25;16.75;;;;;18.44;55.62;101818.88;5060554;28;48440;-60
2021/09/02 03:39:13;;;;;;;;;19.75;18.75;;;;;18.43;55.72;101819.78;5057766;28;45366;-60
2021/09/02 03:41:40;;;;;;;;;19.50;19.50;;;;;18.42;55.57;101809.94;5079347;28;45376;-60
2021/09/02 03:44:06;;;;;;;;;23.50;21.25;;;;;18.42;55.69;101804.56;5040955;28;45655;-60
2021/09/02 03:46:31;;;;;;;;;24.50;23.75;;;;;18.39;55.58;101805.56;5075172;28;47878;-61
2021/09/02 03:48:56;;;;;;;;;24.25;20.75;;;;;18.38;55.63;101798.44;5078419;28;45824;-60
2021/09/02 03:51:22;;;;;;;;;20.00;20.00;;;;;18.38;55.71;101794.88;5060942;28;45349;-60
2021/09/02 03:53:48;;;;;;;;;24.50;20.50;;;;;18.37;55.47;101785.94;5078751;28;45537;-60
2021/09/02 03:56:13;;;;;;;;;25.75;21.25;;;;;18.35;55.62;101787.81;5067415;28;47038;-60
2021/09/02 03:58:38;;;;;;;;;23.50;21.75;;;;;18.33;55.63;101787.00;5078948;28;45393;-60
2021/09/02 04:01:04;;;;;;;;;22.50;18.75;;;;;18.33;55.90;101792.38;5061190;28;45461;-60
2021/09/02 04:03:29;;;;;;;;;20.75;20.25;;;;;18.31;55.71;101788.88;5060959;28;45604;-60
2021/09/02 04:05:55;;;;;;;;;23.50;21.50;;;;;18.30;55.70;101789.81;5079000;28;47501;-60
2021/09/02 04:08:20;;;;;;;;;21.75;21.25;;;;;18.29;55.82;101793.41;5082263;27;45990;-60
2021/09/02 04:10:46;;;;;;;;;25.50;23.25;;;;;18.32;55.83;101797.81;5078644;28;45395;-60
2021/09/02 04:13:11;;;;;;;;;25.00;23.00;;;;;18.31;55.81;101805.00;5078764;28;45358;-60
2021/09/02 04:15:37;;;;;;;;;18.25;18.00;;;;;18.32;55.72;101819.31;5078842;28;47305;-60
2021/09/02 04:18:02;;;;;;;;;24.00;20.75;;;;;18.31;55.49;101822.94;5043601;28;45347;-60
2021/09/02 04:20:28;;;;;;;;;27.00;25.00;;;;;18.27;55.75;101821.25;5060623;28;45634;-60
2021/09/02 04:22:53;;;;;;;;;25.00;22.50;;;;;18.24;55.70;101827.63;5076976;28;45298;-60
2021/09/02 04:25:19;;;;;;;;;24.00;21.25;;;;;18.23;55.65;101820.50;5078166;28;47236;-60
2021/09/02 04:27:44;;;;;;;;;25.25;24.50;;;;;18.21;55.87;101825.06;5060299;28;45633;-60
2021/09/02 04:30:13;;;;;;;;;24.75;20.50;;;;;18.21;55.96;101811.63;5078528;28;45401;-60
2021/09/02 04:32:39;;;;;;;;;25.75;24.00;;;;;18.21;55.75;101808.94;5045449;28;45530;-60
2021/09/02 04:35:05;;;;;;;;;20.75;19.25;;;;;18.18;56.24;101809.06;5077836;28;48056;-60
2021/09/02 04:37:38;;;;;;;;;22.25;18.75;;;;;18.17;55.82;101807.31;5059789;28;45674;-60
2021/09/02 04:40:05;;;;;;;;;28.25;23.00;;;;;18.16;55.87;101811.78;5060032;28;45434;-60
2021/09/02 04:42:30;;;;;;;;;24.00;20.50;;;;;18.16;55.88;101809.09;5082152;27;45378;-60
2021/09/02 04:44:57;;;;;;;;;30.00;21.50;;;;;18.17;55.64;101824.31;5081752;27;47373;-60
2021/09/02 04:47:22;;;;;;;;;23.75;19.75;;;;;18.17;55.98;101818.06;5081533;27;45902;-60
2021/09/02 04:49:48;;;;;;;;;24.50;18.00;;;;;18.18;55.82;101814.44;5063870;28;45325;-61
2021/09/02 04:52:14;;;;;;;;;26.50;24.00;;;;;18.16;55.72;101821.66;5063761;27;45377;-60
2021/09/02 04:54:39;;;;;;;;;25.00;19.00;;;;;18.15;55.74;101826.16;5081346;27;48089;-60
2021/09/02 04:57:05;;;;;;;;;26.75;23.00;;;;;18.14;55.90;101815.47;5082148;27;45311;-61
2021/09/02 04:59:30;;;;;;;;;23.50;20.75;;;;;18.14;55.94;101812.75;5063549;28;45634;-61
2021/09/02 05:01:56;;;;;;;;;24.25;21.75;;;;;18.13;55.76;101819.06;5076366;27;45709;-61
2021/09/02 05:04:21;;;;;;;;;21.00;21.00;;;;;18.13;55.94;101814.56;5081386;27;45962;-61
2021/09/02 05:06:47;;;;;;;;;22.25;21.00;;;;;18.11;56.00;101821.81;5076263;28;45913;-61
2021/09/02 05:09:12;;;;;;;;;24.50;22.50;;;;;18.11;55.50;101819.13;5082101;27;45486;-60
2021/09/02 05:11:37;;;;;;;;;29.50;25.00;;;;;18.10;55.81;101828.13;5081379;27;45724;-62
2021/09/02 05:14:03;;;;;;;;;20.75;20.50;;;;;18.11;55.77;101821.81;5081339;27;48060;-60
2021/09/02 05:16:28;;;;;;;;;28.00;26.25;;;;;18.10;55.70;101811.13;5081561;28;45762;-61
2021/09/02 05:18:54;;;;;;;;;24.25;22.25;;;;;18.10;55.69;101803.94;5081079;28;45477;-62
2021/09/02 05:21:19;;;;;;;;;25.50;21.00;;;;;18.09;55.86;101804.00;5081173;28;45428;-61
2021/09/02 05:23:45;;;;;;;;;19.75;19.75;;;;;18.08;55.89;101805.81;5080959;27;47213;-60
2021/09/02 05:26:10;;;;;;;;;27.00;25.25;;;;;18.08;56.01;101813.88;5061099;28;45539;-59
2021/09/02 05:28:36;;;;;;;;;22.00;20.75;;;;;18.09;56.04;101806.69;5074653;27;45529;-60
2021/09/02 05:31:01;;;;;;;;;27.50;26.25;;;;;18.09;55.84;101807.56;5076027;27;45837;-62
2021/09/02 05:33:27;;;;;;;;;26.50;23.75;;;;;18.09;55.93;101810.25;5065697;28;47263;-60
2021/09/02 05:35:53;;;;;;;;;26.75;25.75;;;;;18.08;56.11;101803.13;5073510;28;45451;-60
2021/09/02 05:38:18;;;;;;;;;26.25;21.50;;;;;18.08;56.05;101800.44;5069622;28;45458;-60
2021/09/02 05:40:45;;;;;;;;;27.50;24.50;;;;;18.07;55.82;101800.50;5070618;27;45329;-59
2021/09/02 05:43:10;;;;;;;;;30.25;25.25;;;;;18.05;55.80;101800.56;5073603;27;47411;-60
2021/09/02 05:45:36;;;;;;;;;27.25;24.50;;;;;18.05;55.81;101800.56;5066682;27;45423;-60
2021/09/02 05:48:03;;;;;;;;;27.25;24.25;;;;;18.05;55.79;101810.44;5053508;28;45792;-60
2021/09/02 05:50:28;;;;;;;;;26.25;25.00;;;;;18.05;55.94;101807.75;5058343;28;45706;-60
2021/09/02 05:52:54;;;;;;;;;24.25;24.00;;;;;18.04;56.14;101803.28;5060782;27;46988;-61
2021/09/02 05:55:21;;;;;;;;;23.75;23.25;;;;;18.05;55.90;101813.13;5074325;27;45374;-60
2021/09/02 05:57:46;;;;;;;;;27.75;26.00;;;;;18.06;55.91;101817.56;5076074;27;45479;-60
2021/09/02 06:00:12;;;;;;;;;24.50;23.75;;;;;18.06;55.78;101818.44;5072292;27;45423;-60
2021/09/02 06:02:38;;;;;;;;;24.25;21.75;;;;;18.07;55.90;101813.94;5076821;27;48165;-60
2021/09/02 06:05:05;;;;;;;;;26.75;25.50;;;;;18.06;56.26;101805.00;5079816;27;45362;-60
2021/09/02 06:07:30;;;;;;;;;30.25;24.75;;;;;18.06;55.92;101810.38;5072739;27;46022;-60
2021/09/02 06:09:56;;;;;;;;;22.25;22.25;;;;;18.08;55.96;101802.25;5072952;27;45838;-60
2021/09/02 06:12:21;;;;;;;;;28.00;25.00;;;;;18.07;55.92;101808.56;5076374;27;48074;-60
2021/09/02 06:14:47;;;;;;;;;27.50;24.50;;;;;18.07;55.68;101812.13;5067490;27;45425;-61
2021/09/02 06:17:12;;;;;;;;;36.25;31.75;;;;;18.05;55.79;101803.25;5070374;27;45825;-52
2021/09/02 06:19:38;;;;;;;;;27.50;24.75;;;;;18.04;55.41;101803.28;5070636;27;45970;-51
2021/09/02 06:22:03;;;;;;;;;32.25;30.25;;;;;18.01;55.70;101800.69;5070707;27;47081;-54
2021/09/02 06:24:29;;;;;;;;;28.75;25.75;;;;;17.98;55.48;101807.06;5069722;27;45422;-53
2021/09/02 06:26:54;;;;;;;;;29.50;27.25;;;;;17.96;55.62;101810.75;5066425;27;45365;-52
2021/09/02 06:29:20;;;;;;;;;27.00;25.50;;;;;17.93;55.88;101806.38;5073727;27;46032;-49
2021/09/02 06:31:46;;;;;;;;;35.50;30.25;;;;;17.93;55.89;101809.06;5074200;27;45617;-52
2021/09/02 06:34:11;;;;;;;;;26.00;25.75;;;;;17.92;55.83;101799.25;5070781;27;45401;-49
2021/09/02 06:36:37;;;;;;;;;30.50;26.50;;;;;17.90;55.68;101801.06;5070297;27;45720;-49
2021/09/02 06:39:03;;;;;;;;;27.25;26.75;;;;;17.89;55.99;101807.38;5072749;27;45505;-50
2021/09/02 06:41:29;;;;;;;;;26.75;26.75;;;;;17.86;56.09;101815.56;5075958;27;45633;-52
2021/09/02 06:43:54;;;;;;;;;32.75;31.25;;;;;17.84;56.28;101817.41;5075833;27;45730;-52
2021/09/02 06:46:20;;;;;;;;;32.50;28.00;;;;;17.84;56.10;101823.66;5074418;27;45442;-53
2021/09/02 06:48:45;;;;;;;;;35.75;29.50;;;;;17.84;56.11;101814.72;5057930;28;45336;-51
2021/09/02 06:51:11;;;;;;;;;30.00;25.00;;;;;17.84;56.22;101823.66;5079731;27;45435;-52
2021/09/02 06:53:36;;;;;;;;;32.00;29.00;;;;;17.83;56.20;101832.66;5067853;27;45584;-52
2021/09/02 06:56:02;;;;;;;;;28.75;25.75;;;;;17.84;56.28;101822.78;5066348;27;47392;-52
2021/09/02 06:58:27;;;;;;;;;34.25;30.75;;;;;17.86;56.61;101820.91;5076819;27;45540;-53
2021/09/02 07:00:53;;;;;;;;;32.75;30.50;;;;;17.87;56.29;101826.22;5078764;27;47543;-51
2021/09/02 07:03:18;;;;;;;;;33.50;27.25;;;;;17.88;56.42;101828.00;5064116;27;45609;-52
2021/09/02 07:05:44;;;;;;;;;31.75;28.50;;;;;17.90;56.25;101815.38;5080354;27;45769;-51
2021/09/02 07:08:10;;;;;;;;;37.75;29.00;;;;;17.90;56.41;101810.00;5079537;27;45727;-54
2021/09/02 07:10:36;;;;;;;;;31.00;28.75;;;;;17.92;56.39;101818.91;5074566;27;47264;-51
2021/09/02 07:13:03;;;;;;;;;33.00;29.75;;;;;17.92;56.56;101818.91;5075937;27;45648;-52
2021/09/02 07:15:29;;;;;;;;;25.00;24.00;;;;;17.93;56.54;101817.09;5071584;28;45578;-52
2021/09/02 07:17:55;;;;;;;;;26.25;24.75;;;;;17.93;56.41;101812.63;5078589;27;46545;-55
2021/09/02 07:20:20;;;;;;;;;34.00;30.25;;;;;17.92;56.45;101812.66;5066537;28;48885;-52
2021/09/02 07:22:46;;;;;;;;;29.75;28.25;;;;;17.94;56.59;101814.38;5061347;27;45600;-53
2021/09/02 07:25:12;;;;;;;;;27.00;25.50;;;;;17.97;57.03;101817.88;5060784;27;45491;-54
2021/09/02 07:27:37;;;;;;;;;29.25;26.00;;;;;17.98;56.47;101823.19;5076970;27;45463;-52
2021/09/02 07:30:04;;;;;;;;;29.00;28.75;;;;;17.99;56.73;101827.63;5086873;27;47733;-53
2021/09/02 07:32:30;;;;;;;;;30.25;25.75;;;;;17.99;56.74;101837.50;5075774;27;45690;-53
2021/09/02 07:34:57;;;;;;;;;30.25;27.75;;;;;18.00;56.58;101833.88;5062158;27;45648;-53
2021/09/02 07:37:23;;;;;;;;;29.25;28.00;;;;;18.03;56.67;101840.00;5064820;27;45465;-53
2021/09/02 07:39:48;;;;;;;;;38.50;33.75;;;;;18.04;56.63;101835.50;5062353;27;47235;-50
2021/09/02 07:42:14;;;;;;;;;32.50;25.75;;;;;18.06;56.43;101831.00;5067109;27;45595;-54
2021/09/02 07:44:40;;;;;;;;;31.50;28.75;;;;;18.06;56.36;101834.53;5063021;28;45590;-51
2021/09/02 07:47:05;;;;;;;;;31.00;30.00;;;;;18.04;56.43;101828.34;5078945;27;46058;-54
2021/09/02 07:49:31;;;;;;;;;35.50;31.50;;;;;18.07;56.78;101830.06;5074126;27;46210;-50
2021/09/02 07:51:57;;;;;;;;;38.00;34.50;;;;;18.11;56.54;101823.63;5068112;28;45699;-49
2021/09/02 07:54:23;;;;;;;;;30.25;28.50;;;;;18.13;56.64;101827.13;5074406;27;45755;-54
2021/09/02 07:56:49;;;;;;;;;33.00;30.75;;;;;18.17;56.79;101816.25;5072168;27;45523;-53
2021/09/02 07:59:16;;;;;;;;;33.25;30.75;;;;;18.22;56.77;101816.06;5076957;28;47220;-51
2021/09/02 08:01:41;;;;;;;;;34.50;30.25;;;;;18.24;56.89;101812.38;5078266;28;45901;-52
2021/09/02 08:04:07;;;;;;;;;35.25;31.50;;;;;18.29;56.80;101808.66;5078196;28;45454;-53
2021/09/02 08:06:32;;;;;;;;;32.75;29.75;;;;;18.32;56.60;101814.81;5066813;28;45541;-52
2021/09/02 08:08:58;;;;;;;;;36.75;32.00;;;;;18.35;56.54;101817.38;5089227;27;45971;-55
2021/09/02 08:11:27;;;;;;;;;36.75;32.25;;;;;18.37;56.60;101817.31;5080617;27;45738;-53
2021/09/02 08:13:54;;;;;;;;;39.50;31.00;;;;;18.41;56.60;101819.81;5080383;28;45575;-51
2021/09/02 08:16:21;;;;;;;;;38.50;32.25;;;;;18.45;56.50;101816.13;5079168;28;45654;-49
2021/09/02 08:18:47;;;;;;;;;31.50;28.50;;;;;18.49;56.57;101814.19;5080001;27;45511;-52
2021/09/02 08:21:12;;;;;;;;;35.50;32.00;;;;;18.54;56.81;101814.88;5061264;28;45256;-52
2021/09/02 08:23:38;;;;;;;;;37.50;32.75;;;;;18.59;56.43;101812.03;5058979;28;45371;-53
2021/09/02 08:26:03;;;;;;;;;41.25;35.00;;;;;18.64;56.66;101808.25;5067429;28;45570;-52
2021/09/02 08:28:29;;;;;;;;;44.50;35.00;;;;;18.68;56.28;101812.59;5068768;27;47246;-52
2021/09/02 08:30:54;;;;;;;;;41.25;35.75;;;;;18.71;56.84;101807.09;5061518;27;46158;-50
2021/09/02 08:33:20;;;;;;;;;47.25;37.75;;;;;18.74;56.53;101804.28;5066098;28;45379;-52
2021/09/02 08:35:45;;;;;;;;;40.00;35.25;;;;;18.78;56.55;101797.84;5079585;27;45522;-51
2021/09/02 08:38:11;;;;;;;;;38.50;32.75;;;;;18.80;56.27;101785.25;5077667;27;47214;-50
2021/09/02 08:40:40;;;;;;;;;42.00;37.50;;;;;18.86;56.19;101796.69;5078226;27;45390;-51
2021/09/02 08:43:06;;;;;;;;;36.50;32.50;;;;;18.90;56.65;101791.13;5069965;27;45488;-54
2021/09/02 08:45:32;;;;;;;;;36.75;33.75;;;;;18.93;56.19;101785.63;5053080;28;45475;-55
2021/09/02 08:48:00;;;;;;;;;45.00;37.00;;;;;18.99;56.30;101788.06;5079026;27;47186;-54
2021/09/02 08:50:29;;;;;;;;;42.00;35.50;;;;;19.03;56.60;101783.44;5056336;28;45528;-53
2021/09/02 08:52:55;;;;;;;;;43.50;35.00;;;;;19.09;56.65;101776.00;5060753;27;45425;-55
2021/09/02 08:55:23;;;;;;;;;41.75;36.00;;;;;19.15;56.64;101777.56;5083105;27;45555;-53
2021/09/02 08:57:50;;;;;;;;;35.75;32.50;;;;;19.21;56.38;101777.34;5066582;27;46923;-55
2021/09/02 09:00:17;;;;;;;;;37.75;32.25;;;;;19.25;56.11;101765.50;5058602;28;45474;-53
2021/09/02 09:02:43;;;;;;;;;41.00;35.75;;;;;19.29;56.37;101772.50;5069897;27;45709;-55
2021/09/02 09:05:12;;;;;;;;;39.25;32.00;;;;;19.31;56.15;101767.94;5069595;28;45883;-52
2021/09/02 09:07:50;;;;;;;;;36.25;29.25;;;;;19.36;56.16;101773.13;5069350;27;47393;-54
2021/09/02 09:10:18;;;;;;;;;34.75;31.75;;;;;19.40;55.86;101770.22;5055281;28;45708;-53
2021/09/02 09:12:46;;;;;;;;;36.50;33.50;;;;;19.45;55.86;101778.13;5063466;28;45461;-55
2021/09/02 09:15:25;;;;;;;;;30.50;28.25;;;;;19.48;55.95;101774.44;5063726;27;45974;-56
2021/09/02 09:17:53;;;;;;;;;37.75;31.00;;;;;19.52;56.29;101782.31;5064697;27;47121;-53
2021/09/02 09:20:23;;;;;;;;;29.75;28.00;;;;;19.57;55.84;101769.59;5063276;27;45399;-56
2021/09/02 09:22:57;;;;;;;;;33.75;31.25;;;;;19.60;55.88;101765.88;5060812;27;45754;-55
2021/09/02 09:25:24;;;;;;;;;31.00;29.75;;;;;19.63;55.72;101769.31;5055990;28;45449;-54
2021/09/02 09:27:51;;;;;;;;;29.25;24.25;;;;;19.68;55.91;101763.72;5064447;28;45501;-56
2021/09/02 09:30:25;;;;;;;;;28.75;25.75;;;;;19.73;55.51;101761.72;5082262;27;46365;-54
2021/09/02 09:33:05;;;;;;;;;30.00;30.00;;;;;19.76;55.85;101758.00;5073587;27;45418;-54
2021/09/02 09:35:35;;;;;;;;;25.75;25.50;;;;;19.79;55.52;101744.41;5072828;27;45569;-55
2021/09/02 09:38:15;;;;;;;;;28.50;27.50;;;;;19.83;55.62;101746.91;5071200;28;48472;-60
2021/09/02 09:40:43;;;;;;;;;30.25;28.50;;;;;19.87;55.57;101750.34;5070645;28;45346;-56
2021/09/02 09:43:14;;;;;;;;;24.25;23.00;;;;;19.91;56.21;101741.16;5078562;27;45504;-60
2021/09/02 09:45:42;;;;;;;;;27.00;25.75;;;;;19.96;55.45;101744.56;5074769;28;45271;-55
2021/09/02 09:48:37;;;;;;;;;28.00;27.50;;;;;20.03;55.51;101737.06;5071288;27;48080;-58
2021/09/02 09:51:05;;;;;;;;;23.50;23.25;;;;;20.07;55.58;101744.03;5061916;28;45359;-57
2021/09/02 09:53:31;;;;;;;;;29.75;27.75;;;;;20.12;55.35;101742.03;5082384;27;45871;-58
2021/09/02 09:55:56;;;;;;;;;26.50;26.50;;;;;20.15;55.11;101734.69;5065526;28;45642;-60
2021/09/02 09:58:26;;;;;;;;;32.50;30.25;;;;;20.21;55.43;101731.72;5076822;28;47089;-55
2021/09/02 10:00:54;;;;;;;;;28.00;25.75;;;;;20.23;54.98;101732.53;5068618;28;45329;-53
2021/09/02 10:03:21;;;;;;;;;22.50;21.00;;;;;20.28;55.33;101729.59;5060980;28;45370;-56
2021/09/02 10:05:50;;;;;;;;;27.50;25.00;;;;;20.33;55.44;101732.97;5079750;27;46548;-54
2021/09/02 10:08:17;;;;;;;;;24.50;23.75;;;;;20.39;54.83;101732.69;5079756;28;47155;-54
2021/09/02 10:10:42;;;;;;;;;25.00;23.75;;;;;20.42;54.90;101732.56;5085335;27;45294;-55
2021/09/02 10:13:09;;;;;;;;;23.50;21.25;;;;;20.47;55.10;101732.38;5080704;27;45430;-56
2021/09/02 10:15:35;;;;;;;;;24.00;19.75;;;;;20.51;54.94;101732.16;5081289;28;45594;-57
2021/09/02 10:18:02;;;;;;;;;24.50;22.50;;;;;20.55;54.87;101719.38;5080724;28;48282;-56
2021/09/02 10:20:36;;;;;;;;;25.50;22.75;;;;;20.61;54.19;101723.63;5062366;27;45656;-56
2021/09/02 10:23:03;;;;;;;;;19.75;19.75;;;;;20.65;54.43;101719.81;5061239;28;45484;-56
2021/09/02 10:25:35;;;;;;;;;24.25;23.00;;;;;20.69;54.18;101724.13;5061842;28;45454;-55
2021/09/02 10:28:17;;;;;;;;;23.50;22.75;;;;;20.73;54.69;101723.91;5061701;28;47205;-56
2021/09/02 10:31:00;;;;;;;;;28.75;23.00;;;;;20.78;54.22;101721.00;5068537;27;45284;-56
2021/09/02 10:33:41;;;;;;;;;25.25;21.75;;;;;20.84;54.13;101718.00;5077950;27;45413;-55
2021/09/02 10:36:10;;;;;;;;;24.75;23.25;;;;;20.88;53.83;101714.19;5061700;28;45781;-56
2021/09/02 10:38:50;;;;;;;;;20.75;19.50;;;;;20.93;54.01;101698.66;5078242;27;47318;-56
2021/09/02 10:41:32;;;;;;;;;24.75;22.50;;;;;20.98;53.70;101703.84;5045833;28;45388;-55
2021/09/02 10:43:58;;;;;;;;;22.50;22.50;;;;;21.02;53.69;101702.72;5052068;27;45384;-56
2021/09/02 10:46:35;;;;;;;;;22.25;20.75;;;;;21.05;53.65;101702.56;5079451;27;45493;-56
2021/09/02 10:49:24;;;;;;;;;26.00;22.00;;;;;21.10;53.37;101695.13;5079095;27;47873;-57
2021/09/02 10:52:04;;;;;;;;;23.25;22.25;;;;;21.12;52.86;101706.72;5061380;28;45371;-56
2021/09/02 10:54:37;;;;;;;;;20.75;19.75;;;;;21.19;52.92;101707.28;5075851;27;45421;-56
2021/09/02 10:57:11;;;;;;;;;22.25;20.25;;;;;21.22;53.15;101699.91;5063296;28;45694;-57
2021/09/02 10:59:51;;;;;;;;;25.25;23.00;;;;;21.27;52.56;101697.00;5079311;27;48256;-55
2021/09/02 11:02:17;;;;;;;;;22.75;22.25;;;;;21.31;53.22;101693.19;5073470;27;45850;-55
2021/09/02 11:04:55;;;;;;;;;21.50;21.50;;;;;21.34;52.80;101695.72;5058769;27;45617;-53
2021/09/02 11:07:44;;;;;;;;;25.50;22.00;;;;;21.41;52.58;101702.56;5070685;27;45735;-53
2021/09/02 11:10:19;;;;;;;;;20.50;19.25;;;;;21.48;52.62;101697.75;5072070;27;48331;-54